EDT,Max TemperatureF,Mean TemperatureF,Min TemperatureF,Max Dew PointF,MeanDew PointF,Min DewpointF,Max Humidity, Mean Humidity, Min Humidity, Max Sea Level PressureIn, Mean Sea Level PressureIn, Min Sea Level PressureIn, Max VisibilityMiles, Mean VisibilityMiles, Min VisibilityMiles, Max Wind SpeedMPH, Mean Wind SpeedMPH, Max Gust SpeedMPH,PrecipitationIn, CloudCover, Events, WindDirDegrees
2014-3-1,20,14,9,15,9,2,88,75,54,30.27,30.11,29.97,10,6,0,12,4,17,0.00,8,Snow,332
2014-3-2,12,2,-8,3,-5,-13,82,63,46,30.35,30.29,30.24,10,10,5,12,3,18,0.00,5,Snow,357
2014-3-3,17,-2,-20,3,-10,-28,80,65,39,30.43,30.37,30.32,10,10,7,12,2,,0.00,1,,240
2014-3-4,20,14,7,15,9,2,85,77,69,30.31,30.21,30.14,10,6,1,9,2,,0.00,7,Snow,250
2014-3-5,21,12,2,6,3,-2,88,70,43,30.50,30.40,30.24,10,10,5,14,4,16,0.00,0,Snow,68
2014-3-6,25,9,-7,10,2,-12,88,65,37,30.49,30.32,30.09,10,10,1,17,5,22,0.00,0,Snow,136
2014-3-7,44,22,1,29,15,-2,87,65,43,30.09,29.93,29.82,10,9,5,13,4,22,0.00,2,,221
2014-3-8,32,24,15,28,18,11,86,69,49,30.17,30.08,29.92,10,10,5,15,9,22,0.00,4,,350
2014-3-9,35,20,6,29,16,3,100,73,45,30.17,29.97,29.72,10,10,5,18,6,30,0.00,2,,235
2014-3-10,50,41,32,32,32,29,99,71,49,29.73,29.59,29.48,10,8,4,21,9,26,0.00,2,,247
2014-3-11,48,40,32,32,30,26,98,69,47,29.79,29.67,29.57,10,10,7,13,4,21,0.00,6,,325
2014-3-12,33,20,8,26,10,-6,77,60,36,30.04,29.84,29.71,10,10,10,18,12,25,0.00,4,Snow,7
2014-3-13,27,12,-2,22,6,-7,82,68,55,30.07,29.98,29.82,10,10,10,15,5,23,0.00,4,Snow,234
2014-3-14,45,36,26,33,28,23,97,72,51,29.82,29.58,29.45,10,9,5,24,10,32,0.00,5,Rain-Snow,227
2014-3-15,37,26,14,32,16,3,89,63,41,30.32,30.00,29.66,10,10,5,20,12,30,0.00,4,Snow,333
2014-3-16,21,12,2,2,-2,-5,75,55,38,30.41,30.34,30.19,10,10,10,13,6,22,0.00,0,,49
2014-3-17,27,15,3,13,4,-4,84,60,37,30.18,30.00,29.86,10,10,10,15,4,21,0.00,3,,126
2014-3-18,40,28,17,28,21,12,78,68,57,29.96,29.91,29.85,10,10,10,16,6,21,0.00,1,,126
2014-3-19,39,35,31,39,33,28,100,94,77,29.85,29.65,29.53,10,6,0,15,6,28,0.03,8,Fog-Rain-Snow,167
2014-3-20,35,30,24,32,24,17,100,74,50,30.02,29.91,29.77,10,8,2,16,9,23,0.00,7,Snow,298
2014-3-21,37,26,15,33,21,13,100,77,52,30.03,29.93,29.70,10,9,0,18,3,22,0.10,2,Snow,134
2014-3-22,32,24,16,32,22,8,100,79,54,30.25,30.01,29.70,10,9,5,14,7,21,0.00,6,Snow,329
2014-3-23,24,14,4,10,5,0,86,66,45,30.36,30.32,30.26,10,10,4,13,5,20,0.00,5,Snow,316
2014-3-24,27,14,0,16,6,-4,86,68,45,30.32,30.18,29.98,10,9,1,20,4,28,0.00,5,Snow,260
2014-3-25,24,16,8,20,11,2,88,70,45,30.14,29.96,29.86,10,8,0,15,7,24,0.00,6,Snow,296
2014-3-26,28,12,-3,15,4,-8,84,64,46,30.27,30.18,30.04,10,10,7,12,3,17,0.00,3,,209
2014-3-27,38,32,28,38,29,16,100,84,57,30.05,29.80,29.51,10,5,1,12,6,18,0.14,8,Rain-Snow,165
2014-3-28,44,38,30,45,35,28,100,95,84,30.19,29.79,29.42,10,7,0,15,8,23,0.44,8,Rain-Snow,315
2014-3-29,40,34,29,28,26,23,91,75,51,30.24,30.19,30.13,10,10,10,10,4,,0.00,4,,38
2014-3-30,48,34,19,26,21,17,100,64,30,30.22,30.16,30.06,10,10,10,9,1,20,0.00,0,,180
2014-3-31,54,40,26,33,29,24,98,64,37,30.12,30.02,29.84,10,10,7,17,4,29,0.00,1,,148